sensor_id;sensor_type;location;lat;lon;timestamp;pressure;altitude;pressure_sealevel;temperature;humidity
31357;BME280;60001;48.404;11.738;2022-09-09T00:00:16;96078.22;;;14.94;83.41
31357;BME280;60001;48.404;11.738;2022-09-09T00:01:54;96084.06;;;14.96;83.52
31357;BME280;60001;48.404;11.738;2022-09-09T00:03:40;96085.94;;;14.96;83.86
31357;BME280;60001;48.404;11.738;2022-09-09T00:05:26;96069.97;;;14.96;83.64
31357;BME280;60001;48.404;11.738;2022-09-09T00:07:04;96089.09;;;14.98;83.70
31357;BME280;60001;48.404;11.738;2022-09-09T00:08:43;96085.66;;;14.97;83.95
31357;BME280;60001;48.404;11.738;2022-09-09T00:10:28;96081.16;;;14.93;84.20
31357;BME280;60001;48.404;11.738;2022-09-09T00:12:11;96075.34;;;14.91;84.08
31357;BME280;60001;48.404;11.738;2022-09-09T00:13:47;96077.50;;;14.89;84.09
31357;BME280;60001;48.404;11.738;2022-09-09T00:15:22;96080.16;;;14.89;84.36
31357;BME280;60001;48.404;11.738;2022-09-09T00:16:57;96076.97;;;14.87;84.14
31357;BME280;60001;48.404;11.738;2022-09-09T00:18:45;96076.19;;;14.86;84.19
31357;BME280;60001;48.404;11.738;2022-09-09T00:20:28;96083.88;;;14.88;84.02
31357;BME280;60001;48.404;11.738;2022-09-09T00:22:15;96080.44;;;14.87;84.27
31357;BME280;60001;48.404;11.738;2022-09-09T00:23:52;96084.69;;;14.88;84.20
31357;BME280;60001;48.404;11.738;2022-09-09T00:25:30;96085.75;;;14.87;84.14
31357;BME280;60001;48.404;11.738;2022-09-09T00:27:11;96082.28;;;14.87;83.56
31357;BME280;60001;48.404;11.738;2022-09-09T00:28:50;96081.50;;;14.86;84.15
31357;BME280;60001;48.404;11.738;2022-09-09T00:30:24;96083.38;;;14.86;83.92
31357;BME280;60001;48.404;11.738;2022-09-09T00:32:09;96069.09;;;14.82;84.31
31357;BME280;60001;48.404;11.738;2022-09-09T00:33:43;96069.88;;;14.82;83.97
31357;BME280;60001;48.404;11.738;2022-09-09T00:35:18;96076.78;;;14.83;84.06
31357;BME280;60001;48.404;11.738;2022-09-09T00:36:55;96074.41;;;14.82;83.91
31357;BME280;60001;48.404;11.738;2022-09-09T00:38:32;96073.59;;;14.81;84.02
31357;BME280;60001;48.404;11.738;2022-09-09T00:40:18;96083.44;;;14.80;83.61
31357;BME280;60001;48.404;11.738;2022-09-09T00:42:11;96067.78;;;14.79;84.29
31357;BME280;60001;48.404;11.738;2022-09-09T00:43:52;96076.03;;;14.77;83.86
31357;BME280;60001;48.404;11.738;2022-09-09T00:45:47;96072.09;;;14.75;83.73
31357;BME280;60001;48.404;11.738;2022-09-09T00:47:38;96078.44;;;14.74;83.55
31357;BME280;60001;48.404;11.738;2022-09-09T00:49:22;96078.41;;;14.79;83.34
31357;BME280;60001;48.404;11.738;2022-09-09T00:50:57;96082.97;;;14.73;83.52
31357;BME280;60001;48.404;11.738;2022-09-09T00:52:40;96082.47;;;14.71;83.43
31357;BME280;60001;48.404;11.738;2022-09-09T00:54:31;96084.34;;;14.71;83.28
31357;BME280;60001;48.404;11.738;2022-09-09T00:56:16;96083.84;;;14.69;83.20
31357;BME280;60001;48.404;11.738;2022-09-09T00:57:53;96091.03;;;14.68;83.46
31357;BME280;60001;48.404;11.738;2022-09-09T00:59:31;96085.47;;;14.65;83.54
31357;BME280;60001;48.404;11.738;2022-09-09T01:01:07;96078.06;;;14.62;83.46
31357;BME280;60001;48.404;11.738;2022-09-09T01:03:02;96071.44;;;14.59;83.54
31357;BME280;60001;48.404;11.738;2022-09-09T01:04:37;96075.28;;;14.48;83.83
31357;BME280;60001;48.404;11.738;2022-09-09T01:06:16;96077.63;;;14.55;83.69
31357;BME280;60001;48.404;11.738;2022-09-09T01:07:50;96082.97;;;14.49;84.21
31357;BME280;60001;48.404;11.738;2022-09-09T01:09:25;96080.59;;;14.48;84.08
31357;BME280;60001;48.404;11.738;2022-09-09T01:11:00;96076.88;;;14.49;84.37
31357;BME280;60001;48.404;11.738;2022-09-09T01:12:39;96079.81;;;14.47;84.52
31357;BME280;60001;48.404;11.738;2022-09-09T01:14:24;96075.59;;;14.46;85.00
31357;BME280;60001;48.404;11.738;2022-09-09T01:16:03;96069.72;;;14.44;84.37
31357;BME280;60001;48.404;11.738;2022-09-09T01:17:52;96070.50;;;14.45;84.62
31357;BME280;60001;48.404;11.738;2022-09-09T01:19:43;96068.13;;;14.43;84.73
31357;BME280;60001;48.404;11.738;2022-09-09T01:21:26;96064.69;;;14.43;84.94
31357;BME280;60001;48.404;11.738;2022-09-09T01:23:29;96062.59;;;14.40;84.58
31357;BME280;60001;48.404;11.738;2022-09-09T01:25:22;96079.53;;;14.44;84.84
31357;BME280;60001;48.404;11.738;2022-09-09T01:27:01;96074.53;;;14.42;84.78
31357;BME280;60001;48.404;11.738;2022-09-09T01:28:36;96075.59;;;14.41;84.48
31357;BME280;60001;48.404;11.738;2022-09-09T01:30:10;96075.34;;;14.38;84.38
31357;BME280;60001;48.404;11.738;2022-09-09T01:31:52;96072.75;;;14.33;84.88
31357;BME280;60001;48.404;11.738;2022-09-09T01:33:24;96075.69;;;14.31;84.98
31357;BME280;60001;48.404;11.738;2022-09-09T01:34:55;96067.00;;;14.25;84.98
31357;BME280;60001;48.404;11.738;2022-09-09T01:36:37;96079.97;;;14.27;85.25
31357;BME280;60001;48.404;11.738;2022-09-09T01:38:10;96075.75;;;14.26;85.41
31357;BME280;60001;48.404;11.738;2022-09-09T01:39:44;96069.91;;;14.24;85.28
31357;BME280;60001;48.404;11.738;2022-09-09T01:41:16;96074.44;;;14.23;85.29
31357;BME280;60001;48.404;11.738;2022-09-09T01:42:49;96076.28;;;14.23;85.33
31357;BME280;60001;48.404;11.738;2022-09-09T01:44:22;96075.50;;;14.22;85.17
31357;BME280;60001;48.404;11.738;2022-09-09T01:45:56;96077.38;;;14.22;85.56
31357;BME280;60001;48.404;11.738;2022-09-09T01:47:29;96077.38;;;14.22;85.63
31357;BME280;60001;48.404;11.738;2022-09-09T01:49:02;96083.75;;;14.21;85.63
31357;BME280;60001;48.404;11.738;2022-09-09T01:50:35;96083.47;;;14.22;85.29
31357;BME280;60001;48.404;11.738;2022-09-09T01:52:07;96088.00;;;14.22;85.88
31357;BME280;60001;48.404;11.738;2022-09-09T01:53:41;96085.34;;;14.22;85.51
31357;BME280;60001;48.404;11.738;2022-09-09T01:55:14;96081.59;;;14.23;85.91
31357;BME280;60001;48.404;11.738;2022-09-09T01:56:56;96085.84;;;14.24;85.65
31357;BME280;60001;48.404;11.738;2022-09-09T01:58:43;96090.91;;;14.25;85.63
31357;BME280;60001;48.404;11.738;2022-09-09T02:00:19;96088.25;;;14.25;85.94
31357;BME280;60001;48.404;11.738;2022-09-09T02:02:03;96093.25;;;14.27;86.24
31357;BME280;60001;48.404;11.738;2022-09-09T02:03:37;96090.91;;;14.25;86.02
31357;BME280;60001;48.404;11.738;2022-09-09T02:05:20;96088.16;;;14.31;86.02
31357;BME280;60001;48.404;11.738;2022-09-09T02:06:57;96088.16;;;14.31;86.06
31357;BME280;60001;48.404;11.738;2022-09-09T02:08:37;96096.66;;;14.33;85.94
31357;BME280;60001;48.404;11.738;2022-09-09T02:10:11;96095.84;;;14.32;85.99
31357;BME280;60001;48.404;11.738;2022-09-09T02:11:47;96094.28;;;14.31;85.92
31357;BME280;60001;48.404;11.738;2022-09-09T02:13:25;96094.28;;;14.31;85.75
31357;BME280;60001;48.404;11.738;2022-09-09T02:15:03;96096.94;;;14.31;86.15
31357;BME280;60001;48.404;11.738;2022-09-09T02:16:40;96088.97;;;14.31;85.74
31357;BME280;60001;48.404;11.738;2022-09-09T02:18:18;96093.19;;;14.32;86.20
31357;BME280;60001;48.404;11.738;2022-09-09T02:19:59;96093.19;;;14.32;86.03
31357;BME280;60001;48.404;11.738;2022-09-09T02:21:34;96085.50;;;14.31;85.95
31357;BME280;60001;48.404;11.738;2022-09-09T02:23:08;96081.78;;;14.32;86.48
31357;BME280;60001;48.404;11.738;2022-09-09T02:24:42;96085.22;;;14.32;86.32
31357;BME280;60001;48.404;11.738;2022-09-09T02:26:21;96079.91;;;14.32;86.30
31357;BME280;60001;48.404;11.738;2022-09-09T02:27:53;96075.13;;;14.34;86.68
31357;BME280;60001;48.404;11.738;2022-09-09T02:29:29;96077.78;;;14.34;86.90
31357;BME280;60001;48.404;11.738;2022-09-09T02:31:05;96074.84;;;14.36;86.47
31357;BME280;60001;48.404;11.738;2022-09-09T02:32:39;96070.63;;;14.35;86.89
31357;BME280;60001;48.404;11.738;2022-09-09T02:34:16;96079.88;;;14.37;86.88
31357;BME280;60001;48.404;11.738;2022-09-09T02:35:51;96072.69;;;14.38;86.91
31357;BME280;60001;48.404;11.738;2022-09-09T02:37:31;96078.78;;;14.38;86.55
31357;BME280;60001;48.404;11.738;2022-09-09T02:39:08;96072.41;;;14.39;86.67
31357;BME280;60001;48.404;11.738;2022-09-09T02:40:41;96081.69;;;14.42;86.55
31357;BME280;60001;48.404;11.738;2022-09-09T02:42:13;96076.66;;;14.40;86.26
31357;BME280;60001;48.404;11.738;2022-09-09T02:43:45;96076.94;;;14.39;86.36
31357;BME280;60001;48.404;11.738;2022-09-09T02:45:20;96069.25;;;14.37;86.49
31357;BME280;60001;48.404;11.738;2022-09-09T02:47:28;96067.66;;;14.36;86.66
31357;BME280;60001;48.404;11.738;2022-09-09T02:49:04;96063.44;;;14.35;86.20
31357;BME280;60001;48.404;11.738;2022-09-09T02:50:49;96053.34;;;14.32;86.40
31357;BME280;60001;48.404;11.738;2022-09-09T02:52:30;96049.97;;;14.26;86.47
31357;BME280;60001;48.404;11.738;2022-09-09T02:54:12;96060.81;;;14.30;86.52
31357;BME280;60001;48.404;11.738;2022-09-09T02:55:53;96066.91;;;14.31;86.93
31357;BME280;60001;48.404;11.738;2022-09-09T02:57:30;96061.59;;;14.31;87.20
31357;BME280;60001;48.404;11.738;2022-09-09T02:59:03;96062.41;;;14.31;87.14
31357;BME280;60001;48.404;11.738;2022-09-09T03:00:35;96047.09;;;14.23;86.30
31357;BME280;60001;48.404;11.738;2022-09-09T03:02:07;96062.69;;;14.30;86.70
31357;BME280;60001;48.404;11.738;2022-09-09T03:03:39;96062.19;;;14.27;86.20
31357;BME280;60001;48.404;11.738;2022-09-09T03:05:11;96059.03;;;14.25;86.53
31357;BME280;60001;48.404;11.738;2022-09-09T03:06:43;96060.84;;;14.25;86.74
31357;BME280;60001;48.404;11.738;2022-09-09T03:08:15;96052.38;;;14.23;86.76
31357;BME280;60001;48.404;11.738;2022-09-09T03:09:47;96061.69;;;14.25;86.30
31357;BME280;60001;48.404;11.738;2022-09-09T03:11:19;96056.63;;;14.24;86.77
31357;BME280;60001;48.404;11.738;2022-09-09T03:12:51;96058.78;;;14.22;86.37
31357;BME280;60001;48.404;11.738;2022-09-09T03:14:22;96038.94;;;14.14;86.48
31357;BME280;60001;48.404;11.738;2022-09-09T03:15:55;96045.25;;;14.18;86.20
31357;BME280;60001;48.404;11.738;2022-09-09T03:17:27;96059.06;;;14.20;86.90
31357;BME280;60001;48.404;11.738;2022-09-09T03:19:00;96056.69;;;14.19;86.41
31357;BME280;60001;48.404;11.738;2022-09-09T03:20:31;96055.88;;;14.18;86.81
31357;BME280;60001;48.404;11.738;2022-09-09T03:22:03;96052.44;;;14.18;86.81
31357;BME280;60001;48.404;11.738;2022-09-09T03:23:34;96054.84;;;14.19;87.01
31357;BME280;60001;48.404;11.738;2022-09-09T03:25:07;96051.88;;;14.21;87.21
31357;BME280;60001;48.404;11.738;2022-09-09T03:26:38;96053.75;;;14.20;87.42
31357;BME280;60001;48.404;11.738;2022-09-09T03:28:10;96053.19;;;14.23;87.34
31357;BME280;60001;48.404;11.738;2022-09-09T03:29:42;96051.06;;;14.25;87.66
31357;BME280;60001;48.404;11.738;2022-09-09T03:31:18;96051.56;;;14.27;87.58
31357;BME280;60001;48.404;11.738;2022-09-09T03:32:49;96054.44;;;14.31;88.16
31357;BME280;60001;48.404;11.738;2022-09-09T03:34:23;96044.06;;;14.35;87.80
31357;BME280;60001;48.404;11.738;2022-09-09T03:35:54;96048.00;;;14.37;87.79
31357;BME280;60001;48.404;11.738;2022-09-09T03:37:26;96047.47;;;14.40;87.99
31357;BME280;60001;48.404;11.738;2022-09-09T03:38:58;96049.53;;;14.43;87.90
31357;BME280;60001;48.404;11.738;2022-09-09T03:40:29;96045.00;;;14.44;87.55
31357;BME280;60001;48.404;11.738;2022-09-09T03:42:01;96050.03;;;14.45;87.82
31357;BME280;60001;48.404;11.738;2022-09-09T03:43:36;96051.38;;;14.48;88.02
31357;BME280;60001;48.404;11.738;2022-09-09T03:45:09;96047.66;;;14.49;88.48
31357;BME280;60001;48.404;11.738;2022-09-09T03:46:41;96046.00;;;14.53;88.47
31357;BME280;60001;48.404;11.738;2022-09-09T03:48:14;96046.53;;;14.55;88.26
31357;BME280;60001;48.404;11.738;2022-09-09T03:49:47;96042.34;;;14.49;88.21
31357;BME280;60001;48.404;11.738;2022-09-09T03:51:19;96054.72;;;14.59;88.26
31357;BME280;60001;48.404;11.738;2022-09-09T03:52:52;96047.28;;;14.61;87.90
31357;BME280;60001;48.404;11.738;2022-09-09T03:54:24;96044.31;;;14.62;88.36
31357;BME280;60001;48.404;11.738;2022-09-09T03:55:57;96047.19;;;14.66;88.13
31357;BME280;60001;48.404;11.738;2022-09-09T03:57:30;96045.06;;;14.68;88.33
31357;BME280;60001;48.404;11.738;2022-09-09T03:59:02;96045.56;;;14.70;88.01
31357;BME280;60001;48.404;11.738;2022-09-09T04:00:34;96049.78;;;14.71;88.23
31357;BME280;60001;48.404;11.738;2022-09-09T04:02:06;96051.09;;;14.73;88.35
31357;BME280;60001;48.404;11.738;2022-09-09T04:03:37;96048.44;;;14.73;88.12
31357;BME280;60001;48.404;11.738;2022-09-09T04:05:10;96040.19;;;14.75;88.48
31357;BME280;60001;48.404;11.738;2022-09-09T04:06:42;96045.50;;;14.75;88.42
31357;BME280;60001;48.404;11.738;2022-09-09T04:08:13;96032.72;;;14.77;88.20
31357;BME280;60001;48.404;11.738;2022-09-09T04:09:44;96033.50;;;14.77;87.99
31357;BME280;60001;48.404;11.738;2022-09-09T04:11:19;96036.66;;;14.79;88.38
31357;BME280;60001;48.404;11.738;2022-09-09T04:12:51;96039.31;;;14.79;88.23
31357;BME280;60001;48.404;11.738;2022-09-09T04:14:23;96035.88;;;14.79;87.89
31357;BME280;60001;48.404;11.738;2022-09-09T04:16:01;96026.81;;;14.80;87.67
31357;BME280;60001;48.404;11.738;2022-09-09T04:17:33;96037.44;;;14.80;87.93
31357;BME280;60001;48.404;11.738;2022-09-09T04:19:06;96038.25;;;14.80;88.00
31357;BME280;60001;48.404;11.738;2022-09-09T04:20:39;96033.72;;;14.81;87.59
31357;BME280;60001;48.404;11.738;2022-09-09T04:22:10;96034.00;;;14.79;87.21
31357;BME280;60001;48.404;11.738;2022-09-09T04:23:42;96032.13;;;14.80;87.22
31357;BME280;60001;48.404;11.738;2022-09-09T04:25:12;96038.53;;;14.79;86.97
31357;BME280;60001;48.404;11.738;2022-09-09T04:26:44;96036.66;;;14.79;87.34
31357;BME280;60001;48.404;11.738;2022-09-09T04:28:18;96042.28;;;14.78;87.16
31357;BME280;60001;48.404;11.738;2022-09-09T04:29:51;96031.97;;;14.71;87.17
31357;BME280;60001;48.404;11.738;2022-09-09T04:31:23;96049.16;;;14.79;86.97
31357;BME280;60001;48.404;11.738;2022-09-09T04:32:56;96050.25;;;14.78;87.14
31357;BME280;60001;48.404;11.738;2022-09-09T04:34:28;96052.41;;;14.76;87.41
31357;BME280;60001;48.404;11.738;2022-09-09T04:36:02;96042.41;;;14.68;86.98
31357;BME280;60001;48.404;11.738;2022-09-09T04:37:34;96051.09;;;14.73;87.13
31357;BME280;60001;48.404;11.738;2022-09-09T04:39:05;96044.19;;;14.72;87.16
31357;BME280;60001;48.404;11.738;2022-09-09T04:40:36;96054.31;;;14.70;86.96
31357;BME280;60001;48.404;11.738;2022-09-09T04:42:13;96050.09;;;14.69;86.84
31357;BME280;60001;48.404;11.738;2022-09-09T04:43:44;96050.88;;;14.70;87.21
31357;BME280;60001;48.404;11.738;2022-09-09T04:45:16;96036.81;;;14.69;87.55
31357;BME280;60001;48.404;11.738;2022-09-09T04:46:48;96042.41;;;14.68;87.04
31357;BME280;60001;48.404;11.738;2022-09-09T04:48:20;96033.66;;;14.67;87.40
31357;BME280;60001;48.404;11.738;2022-09-09T04:49:52;96036.00;;;14.69;87.23
31357;BME280;60001;48.404;11.738;2022-09-09T04:51:26;96029.13;;;14.68;87.22
31357;BME280;60001;48.404;11.738;2022-09-09T04:53:00;96024.31;;;14.70;87.40
31357;BME280;60001;48.404;11.738;2022-09-09T04:54:31;96033.06;;;14.70;87.10
31357;BME280;60001;48.404;11.738;2022-09-09T04:56:05;96033.56;;;14.72;87.21
31357;BME280;60001;48.404;11.738;2022-09-09T04:57:37;96022.94;;;14.72;87.28
31357;BME280;60001;48.404;11.738;2022-09-09T04:59:09;96017.63;;;14.72;87.55
31357;BME280;60001;48.404;11.738;2022-09-09T05:00:41;96018.41;;;14.73;87.63
31357;BME280;60001;48.404;11.738;2022-09-09T05:02:12;96027.94;;;14.74;87.90
31357;BME280;60001;48.404;11.738;2022-09-09T05:03:44;96032.22;;;14.75;87.37
31357;BME280;60001;48.404;11.738;2022-09-09T05:05:16;96034.88;;;14.75;87.81
31357;BME280;60001;48.404;11.738;2022-09-09T05:06:50;96029.28;;;14.76;87.20
31357;BME280;60001;48.404;11.738;2022-09-09T05:08:22;96028.47;;;14.76;87.69
31357;BME280;60001;48.404;11.738;2022-09-09T05:09:54;96036.16;;;14.77;87.84
31357;BME280;60001;48.404;11.738;2022-09-09T05:11:27;96033.22;;;14.79;87.58
31357;BME280;60001;48.404;11.738;2022-09-09T05:12:59;96032.44;;;14.78;87.35
31357;BME280;60001;48.404;11.738;2022-09-09T05:14:31;96040.09;;;14.80;87.60
31357;BME280;60001;48.404;11.738;2022-09-09T05:16:03;96041.19;;;14.79;87.72
31357;BME280;60001;48.404;11.738;2022-09-09T05:17:35;96047.28;;;14.79;87.07
31357;BME280;60001;48.404;11.738;2022-09-09T05:19:07;96047.81;;;14.82;87.68
31357;BME280;60001;48.404;11.738;2022-09-09T05:20:39;96054.72;;;14.83;87.33
31357;BME280;60001;48.404;11.738;2022-09-09T05:22:18;96045.97;;;14.82;87.53
31357;BME280;60001;48.404;11.738;2022-09-09T05:23:50;96043.56;;;14.80;87.60
31357;BME280;60001;48.404;11.738;2022-09-09T05:25:22;96037.97;;;14.82;87.83
31357;BME280;60001;48.404;11.738;2022-09-09T05:26:55;96038.47;;;14.84;88.25
31357;BME280;60001;48.404;11.738;2022-09-09T05:28:29;96035.59;;;14.80;87.72
31357;BME280;60001;48.404;11.738;2022-09-09T05:30:01;96037.41;;;14.85;88.42
31357;BME280;60001;48.404;11.738;2022-09-09T05:31:32;96045.09;;;14.87;88.03
31357;BME280;60001;48.404;11.738;2022-09-09T05:33:04;96041.63;;;14.86;87.95
31357;BME280;60001;48.404;11.738;2022-09-09T05:34:37;96046.66;;;14.88;88.05
31357;BME280;60001;48.404;11.738;2022-09-09T05:36:11;96039.75;;;14.87;87.85
31357;BME280;60001;48.404;11.738;2022-09-09T05:38:00;96037.91;;;14.87;88.18
31357;BME280;60001;48.404;11.738;2022-09-09T05:39:32;96036.84;;;14.88;88.26
31357;BME280;60001;48.404;11.738;2022-09-09T05:41:04;96048.28;;;14.89;87.69
31357;BME280;60001;48.404;11.738;2022-09-09T05:42:36;96046.66;;;14.88;88.16
31357;BME280;60001;48.404;11.738;2022-09-09T05:44:09;96051.72;;;14.89;88.16
31357;BME280;60001;48.404;11.738;2022-09-09T05:45:43;96055.44;;;14.88;88.46
31357;BME280;60001;48.404;11.738;2022-09-09T05:47:14;96052.50;;;14.90;88.19
31357;BME280;60001;48.404;11.738;2022-09-09T05:48:48;96064.44;;;14.92;88.38
31357;BME280;60001;48.404;11.738;2022-09-09T05:50:21;96056.75;;;14.91;88.21
31357;BME280;60001;48.404;11.738;2022-09-09T05:51:52;96058.56;;;14.95;87.97
31357;BME280;60001;48.404;11.738;2022-09-09T05:53:25;96058.56;;;14.95;88.47
31357;BME280;60001;48.404;11.738;2022-09-09T05:54:57;96057.69;;;15.00;88.79
31357;BME280;60001;48.404;11.738;2022-09-09T05:56:30;96056.59;;;15.01;88.65
31357;BME280;60001;48.404;11.738;2022-09-09T05:58:02;96061.88;;;15.06;88.43
31357;BME280;60001;48.404;11.738;2022-09-09T05:59:34;96056.25;;;15.07;88.63
31357;BME280;60001;48.404;11.738;2022-09-09T06:01:08;96055.41;;;15.12;88.38
31357;BME280;60001;48.404;11.738;2022-09-09T06:02:40;96062.53;;;15.17;88.93
31357;BME280;60001;48.404;11.738;2022-09-09T06:04:12;96061.66;;;15.21;88.55
31357;BME280;60001;48.404;11.738;2022-09-09T06:05:43;96054.69;;;15.25;88.60
31357;BME280;60001;48.404;11.738;2022-09-09T06:07:15;96049.31;;;15.30;88.87
31357;BME280;60001;48.404;11.738;2022-09-09T06:08:51;96055.94;;;15.33;88.46
31357;BME280;60001;48.404;11.738;2022-09-09T06:10:23;96048.66;;;15.39;88.28
31357;BME280;60001;48.404;11.738;2022-09-09T06:11:55;96052.63;;;15.41;88.59
31357;BME280;60001;48.404;11.738;2022-09-09T06:13:29;96053.09;;;15.43;87.97
31357;BME280;60001;48.404;11.738;2022-09-09T06:15:01;96052.53;;;15.46;88.08
31357;BME280;60001;48.404;11.738;2022-09-09T06:16:34;96051.97;;;15.49;87.67
31357;BME280;60001;48.404;11.738;2022-09-09T06:18:07;96053.53;;;15.50;88.30
31357;BME280;60001;48.404;11.738;2022-09-09T06:19:39;96051.88;;;15.54;87.70
31357;BME280;60001;48.404;11.738;2022-09-09T06:21:23;96055.03;;;15.56;87.79
31357;BME280;60001;48.404;11.738;2022-09-09T06:22:55;96055.28;;;15.60;87.88
31357;BME280;60001;48.404;11.738;2022-09-09T06:24:28;96064.28;;;15.64;87.56
31357;BME280;60001;48.404;11.738;2022-09-09T06:26:02;96054.94;;;15.67;87.57
31357;BME280;60001;48.404;11.738;2022-09-09T06:27:33;96057.53;;;15.72;87.67
31357;BME280;60001;48.404;11.738;2022-09-09T06:29:04;96054.78;;;15.77;88.03
31357;BME280;60001;48.404;11.738;2022-09-09T06:30:36;96050.81;;;15.74;87.72
31357;BME280;60001;48.404;11.738;2022-09-09T06:32:08;96057.06;;;15.83;87.81
31357;BME280;60001;48.404;11.738;2022-09-09T06:33:41;96053.25;;;15.89;87.36
31357;BME280;60001;48.404;11.738;2022-09-09T06:35:12;96056.13;;;15.93;87.80
31357;BME280;60001;48.404;11.738;2022-09-09T06:36:44;96050.22;;;15.96;87.31
31357;BME280;60001;48.404;11.738;2022-09-09T06:38:16;96044.88;;;15.96;86.82
31357;BME280;60001;48.404;11.738;2022-09-09T06:39:50;96047.25;;;15.98;86.75
31357;BME280;60001;48.404;11.738;2022-09-09T06:41:25;96048.81;;;15.99;86.77
31357;BME280;60001;48.404;11.738;2022-09-09T06:42:59;96041.91;;;15.98;86.12
31357;BME280;60001;48.404;11.738;2022-09-09T06:44:32;96049.53;;;16.04;85.64
31357;BME280;60001;48.404;11.738;2022-09-09T06:46:06;96052.19;;;16.04;85.16
31357;BME280;60001;48.404;11.738;2022-09-09T06:47:39;96041.63;;;15.99;85.47
31357;BME280;60001;48.404;11.738;2022-09-09T06:49:12;96056.97;;;16.07;85.27
31357;BME280;60001;48.404;11.738;2022-09-09T06:50:43;96056.97;;;16.07;85.93
31357;BME280;60001;48.404;11.738;2022-09-09T06:52:15;96054.00;;;16.09;85.52
31357;BME280;60001;48.404;11.738;2022-09-09T06:53:51;96066.72;;;16.12;85.76
31357;BME280;60001;48.404;11.738;2022-09-09T06:55:24;96062.97;;;16.13;84.98
31357;BME280;60001;48.404;11.738;2022-09-09T06:56:56;96063.78;;;16.13;84.96
31357;BME280;60001;48.404;11.738;2022-09-09T06:58:28;96065.34;;;16.14;84.65
31357;BME280;60001;48.404;11.738;2022-09-09T07:00:01;96074.63;;;16.17;84.24
31357;BME280;60001;48.404;11.738;2022-09-09T07:01:34;96073.53;;;16.18;84.88
31357;BME280;60001;48.404;11.738;2022-09-09T07:03:06;96088.97;;;16.21;84.57
31357;BME280;60001;48.404;11.738;2022-09-09T07:04:38;96080.97;;;16.21;84.03
31357;BME280;60001;48.404;11.738;2022-09-09T07:06:32;96090.53;;;16.22;83.91
31357;BME280;60001;48.404;11.738;2022-09-09T07:08:04;96089.34;;;16.14;83.38
31357;BME280;60001;48.404;11.738;2022-09-09T07:09:36;96123.16;;;16.14;84.13
31357;BME280;60001;48.404;11.738;2022-09-09T07:11:10;96143.97;;;16.12;84.06
31357;BME280;60001;48.404;11.738;2022-09-09T07:12:42;96141.28;;;16.12;83.70
31357;BME280;60001;48.404;11.738;2022-09-09T07:14:15;96142.38;;;16.11;84.33
31357;BME280;60001;48.404;11.738;2022-09-09T07:15:47;96137.06;;;16.11;83.93
31357;BME280;60001;48.404;11.738;2022-09-09T07:17:18;96138.94;;;16.10;84.19
31357;BME280;60001;48.404;11.738;2022-09-09T07:18:50;96145.03;;;16.11;84.44
31357;BME280;60001;48.404;11.738;2022-09-09T07:20:22;96151.69;;;16.13;84.52
31357;BME280;60001;48.404;11.738;2022-09-09T07:21:54;96140.72;;;16.15;84.80
31357;BME280;60001;48.404;11.738;2022-09-09T07:23:26;96142.59;;;16.14;84.47
31357;BME280;60001;48.404;11.738;2022-09-09T07:24:58;96135.97;;;16.12;84.60
31357;BME280;60001;48.404;11.738;2022-09-09T07:26:31;96137.84;;;16.11;84.72
31357;BME280;60001;48.404;11.738;2022-09-09T07:28:02;96138.38;;;16.13;84.48
31357;BME280;60001;48.404;11.738;2022-09-09T07:29:34;96127.72;;;16.13;85.25
31357;BME280;60001;48.404;11.738;2022-09-09T07:31:07;96137.78;;;16.16;85.15
31357;BME280;60001;48.404;11.738;2022-09-09T07:32:51;96144.97;;;16.16;84.92
31357;BME280;60001;48.404;11.738;2022-09-09T07:34:23;96151.09;;;16.16;84.68
31357;BME280;60001;48.404;11.738;2022-09-09T07:36:03;96158.28;;;16.16;85.41
31357;BME280;60001;48.404;11.738;2022-09-09T07:37:37;96149.81;;;16.14;85.02
31357;BME280;60001;48.404;11.738;2022-09-09T07:39:12;96154.34;;;16.13;84.80
31357;BME280;60001;48.404;11.738;2022-09-09T07:40:45;96154.34;;;16.13;85.44
31357;BME280;60001;48.404;11.738;2022-09-09T07:42:18;96157.81;;;16.14;85.21
31357;BME280;60001;48.404;11.738;2022-09-09T07:43:51;96153.03;;;16.11;85.40
31357;BME280;60001;48.404;11.738;2022-09-09T07:45:24;96151.38;;;16.15;85.46
31357;BME280;60001;48.404;11.738;2022-09-09T07:46:58;96150.78;;;16.18;85.57
31357;BME280;60001;48.404;11.738;2022-09-09T07:48:30;96156.63;;;16.20;85.82
31357;BME280;60001;48.404;11.738;2022-09-09T07:50:02;96162.75;;;16.21;85.91
31357;BME280;60001;48.404;11.738;2022-09-09T07:51:36;96165.69;;;16.19;85.75
31357;BME280;60001;48.404;11.738;2022-09-09T07:53:09;96167.28;;;16.20;85.66
31357;BME280;60001;48.404;11.738;2022-09-09T07:54:40;96163.56;;;16.21;85.39
31357;BME280;60001;48.404;11.738;2022-09-09T07:56:22;96162.47;;;16.22;86.07
31357;BME280;60001;48.404;11.738;2022-09-09T07:57:55;96169.84;;;16.25;85.56
31357;BME280;60001;48.404;11.738;2022-09-09T07:59:27;96161.31;;;16.28;86.25
31357;BME280;60001;48.404;11.738;2022-09-09T08:01:06;96165.06;;;16.27;85.57
31357;BME280;60001;48.404;11.738;2022-09-09T08:02:38;96162.88;;;16.29;85.45
31357;BME280;60001;48.404;11.738;2022-09-09T08:04:12;96161.00;;;16.30;85.61
31357;BME280;60001;48.404;11.738;2022-09-09T08:05:45;96160.41;;;16.33;86.31
31357;BME280;60001;48.404;11.738;2022-09-09T08:07:17;96151.84;;;16.36;86.45
31357;BME280;60001;48.404;11.738;2022-09-09T08:08:52;96146.72;;;16.39;86.63
31357;BME280;60001;48.404;11.738;2022-09-09T08:10:25;96149.00;;;16.46;86.34
31357;BME280;60001;48.404;11.738;2022-09-09T08:11:57;96151.59;;;16.51;86.79
31357;BME280;60001;48.404;11.738;2022-09-09T08:13:30;96149.63;;;16.57;86.01
31357;BME280;60001;48.404;11.738;2022-09-09T08:15:03;96154.59;;;16.63;86.75
31357;BME280;60001;48.404;11.738;2022-09-09T08:16:38;96153.44;;;16.69;86.23